LCPHLGKO

Guest
Details From LCPH - PAFOS INTL
To LGKO - KOS
Flight Number -
Tags generated
Created
Modified
Stats Distance 293 nm / 543 km
Max Altitude 32,700 ft / 9,967 m
Waypoints 7
Social Downloads 0
Likes 0
Share VATSIM

Download

Looking for another format? Having issues loading an existing format? Contact us
Advertisement - Login to hide

Notes

Basic altitude profile: - Ascent Rate: 2500ft/min - Ascent Speed: 250kts - Cruise Altitude: 35000ft - Cruise Speed: 420kts - Descent Rate: 1500ft/min - Descent Speed: 250kts Options: - Use NATs: yes - Use PACOTS: yes - Use low airways: yes - Use high airways: yes

Route

LCPH TOBAL W195 DASNI UM601 RDS LGKO

ID Type Via Altitude Latitude Longitude Leg Dist Tot Dist Heading (true) Name
O LCPH APT - 0 ft / 0 m 34.71804˚ 32.48573˚ - 0 nm - PAFOS INTL
TOBAL FIX - 7,700 ft / 2,347 m 34.92500˚ 32.12333˚ 21 nm 21 nm 305° / 305° -
DASNI FIX W195 (AWY-LO) 24,500 ft / 7,468 m 35.61667˚ 30.85000˚ 74 nm 96 nm 304° / 303° -
EVENO FIX UM601 (AWY-HI) 32,700 ft / 9,967 m 35.83333˚ 30.00000˚ 43 nm 140 nm 288° / 287° -
EXELA FIX UM601 (AWY-HI) 26,800 ft / 8,169 m 35.95556˚ 29.54778˚ 23 nm 163 nm 289° / 288° -
RDS VOR UM601 (AWY-HI) 24,500 ft / 7,468 m 36.34111˚ 28.08250˚ 74 nm 238 nm 288° / 288° RODOS VOR-DME
O LGKO APT - 0 ft / 0 m 36.79440˚ 27.09076˚ 55 nm 293 nm 300° / 299° KOS

Altitude Profile

Advertisement - Login to hide

Weather


0- 5 10 15 20 25 30 35+ Temperature / ° C

Clouds and Precipitation
Forecast for 2017-12-15 00:00 UTC. Updated 2 hours ago

Ground ~20,000 ft ~40,000 ft Winds

LCPH

Details ICAO LCPH (PFO)
Name PAFOS INTL
Region Cyprus
Timezone Asia/Nicosia (UTC+2.0)
Stats Elevation 41 ft / 12 m (AMSL)
Location 34.718038° 32.485731°
Runways 1
Magnetic Variation 4.917° E

METAR

LCPH 142030Z 28011KT 9999 FEW024 BKN045 18/14 Q1017

Decode

TAF

TAF LCPH 141730Z 1418/1518 30010KT 9999 SCT020 BECMG 1418/1421 01007KT BECMG 1505/1508 29013KT BECMG 1515/1518 02006KT

Decode

Departure Runways

ID Width Length Bearing (true) Bearing (mag) Surface Threshold Offset Overrun Length
11 148 ft / 45 m 8,854 ft / 2,699 m 110.34° 105.42° Asphalt 0 ft / 0 m 0 ft / 0 m
29 148 ft / 45 m 8,854 ft / 2,699 m 290.36° 285.44° Asphalt 0 ft / 0 m 150 ft / 46 m

LGKO

Details ICAO LGKO (KGS)
Name KOS
Region Greece
Timezone Europe/Athens (UTC+2.0)
Stats Elevation 412 ft / 126 m (AMSL)
Location 36.794403° 27.090764°
Runways 1
Magnetic Variation 4.723° E

METAR

LGKO 142020Z 27004KT 9999 FEW018 14/10 Q1016

Decode

TAF

TAF LGKO 141700Z 1418/1518 VRB03KT 9999 FEW020 BECMG 1510/1512 26015KT

Decode

Destination Runways

ID Width Length Bearing (true) Bearing (mag) Surface Threshold Offset Overrun Length
14 148 ft / 45 m 7,923 ft / 2,415 m 148.29° 143.57° Asphalt 0 ft / 0 m 240 ft / 73 m
32 148 ft / 45 m 7,923 ft / 2,415 m 328.30° 323.58° Asphalt 0 ft / 0 m 205 ft / 62 m